Accueil
METAR-TAF:

METAR-TAF

Aéroports :

Lelystad, Pays-Bas

latitude: 52-27-37N, longitude: 005-31-38E, altitude: -4 m

Observation

Le bulletin a été fait il y a 1 heure et 22 minutes, à 12:55 UTC
Vent 10 kt de est/nord-est, variant entre nord/nord-est et est/sud-est
Température 23°C
Humidité 33%
Pression 1022 hPa
Visibilité 10 km ou plus

METAR: EHLE 011255Z AUTO 06010KT 020V120 9999 NCD 23/06 Q1022 NOSIG

Heure: 16:17 (14:17 UTC)

Prévision

Le bulletin a été fait il y a 3 heures et 20 minutes, à 10:57 UTC
Prévision valable du 01 à 12 UTC au 02 à 18 UTC
Vent 10 kt de est/nord-est
Visibilité 10 km ou plus
pas de nuages en-dessous de 1500 mètres et pas de cumulonimbus.
Evoluant progressivement
du 01 à 17 UTC au 01 à 20 UTC
Vent 5 kt de nord/nord-est
Evoluant progressivement
du 02 à 11 UTC au 02 à 14 UTC
Vent 10 kt de ouest/nord-ouest

TAF: EHLE 011057Z 0112/0218 06010KT CAVOK BECMG 0117/0120 03005KT BECMG 0211/0214 29010KT

Observations et prévisions météorologiques de plus de 4000 aéroports (messages METAR et TAF).

Les stations disponibles sont représentées par des disques jaunes et rouges sur la carte.

Passer la souris dessus pour voir le nom de la station.

Cliquer dessus pour voir les observations et prévisions météorologiques.

Pour changer de carte: cliquez sur les boutons verts avec une croix noire pour zoomer, sur le bouton vert avec un tiret pour effectuer un zoom arrière, ou sur les flèches vertes pour les cartes adjacentes.


METAR-TAF: